SWA617 KJAX-KPHL
Flight info
| Callsign | SWA617 |
|---|---|
| Flight time | 1h 41m |
| Altitude | 33000 |
| Route | CROSB2 WISPR JROSS Q135 RREGG Q117 SAWED Q97 ZJAAY JIIMS4 |
| Aircraft | B738/M-SADE2E3GIJ4RWZ/LB1D1 |
Departure
| Time | 2026-05-07 02:09 |
|---|---|
| Airport | Jacksonville International Airport (KJAX) |
Arrival
| Time | 2026-05-07 03:50 |
|---|---|
| Airport | Philadelphia International Airport (KPHL) |
| Time | Latitude | Longitude | Altitude | Speed | Heading |
|---|---|---|---|---|---|
| 2026-05-07 01:23 | 30.49018 | -81.68571 | 39 ft | 0 kts | 316° |
| 2026-05-07 01:53 | 30.49015 | -81.68568 | 40 ft | 2 kts | 326° |
| 2026-05-07 01:53 | 30.49002 | -81.68561 | 40 ft | 2 kts | 332° |
| 2026-05-07 01:53 | 30.48989 | -81.68552 | 40 ft | 2 kts | 329° |
| 2026-05-07 01:53 | 30.48976 | -81.68543 | 40 ft | 2 kts | 330° |
| 2026-05-07 01:54 | 30.48963 | -81.68535 | 40 ft | 2 kts | 330° |
| 2026-05-07 01:54 | 30.48955 | -81.68530 | 40 ft | 2 kts | 330° |
| 2026-05-07 01:54 | 30.48950 | -81.68522 | 40 ft | 1 kts | 269° |
| 2026-05-07 01:54 | 30.48952 | -81.68513 | 40 ft | 0 kts | 225° |
| 2026-05-07 01:55 | 30.48957 | -81.68509 | 40 ft | 1 kts | 218° |
| 2026-05-07 01:55 | 30.48958 | -81.68507 | 40 ft | 0 kts | 219° |
| 2026-05-07 02:00 | 30.48923 | -81.68535 | 40 ft | 9 kts | 208° |
| 2026-05-07 02:00 | 30.48871 | -81.68571 | 40 ft | 8 kts | 229° |
| 2026-05-07 02:00 | 30.48868 | -81.68631 | 40 ft | 7 kts | 291° |
| 2026-05-07 02:00 | 30.48905 | -81.68711 | 40 ft | 14 kts | 300° |
| 2026-05-07 02:01 | 30.48976 | -81.68785 | 40 ft | 13 kts | 326° |
| 2026-05-07 02:01 | 30.49043 | -81.68864 | 40 ft | 15 kts | 298° |
| 2026-05-07 02:01 | 30.49087 | -81.68972 | 40 ft | 14 kts | 295° |
| 2026-05-07 02:01 | 30.49159 | -81.69030 | 40 ft | 14 kts | 5° |
| 2026-05-07 02:02 | 30.49256 | -81.69011 | 40 ft | 14 kts | 11° |
| 2026-05-07 02:02 | 30.49349 | -81.68992 | 40 ft | 13 kts | 7° |
| 2026-05-07 02:02 | 30.49440 | -81.69009 | 40 ft | 13 kts | 335° |
| 2026-05-07 02:02 | 30.49520 | -81.69066 | 40 ft | 16 kts | 329° |
| 2026-05-07 02:03 | 30.49626 | -81.69138 | 40 ft | 18 kts | 329° |
| 2026-05-07 02:03 | 30.49682 | -81.69234 | 40 ft | 15 kts | 260° |
| 2026-05-07 02:03 | 30.49647 | -81.69340 | 40 ft | 14 kts | 249° |
| 2026-05-07 02:03 | 30.49610 | -81.69462 | 40 ft | 20 kts | 250° |
| 2026-05-07 02:04 | 30.49565 | -81.69610 | 41 ft | 19 kts | 251° |
| 2026-05-07 02:04 | 30.49517 | -81.69766 | 41 ft | 22 kts | 250° |
| 2026-05-07 02:04 | 30.49482 | -81.69878 | 40 ft | 0 kts | 252° |
| 2026-05-07 02:06 | 30.49495 | -81.69922 | 40 ft | 10 kts | 316° |
| 2026-05-07 02:07 | 30.49556 | -81.69959 | 40 ft | 10 kts | 339° |
| 2026-05-07 02:07 | 30.49632 | -81.69960 | 40 ft | 3 kts | 66° |
| 2026-05-07 02:07 | 30.49634 | -81.69955 | 40 ft | 0 kts | 69° |
| 2026-05-07 02:08 | 30.49692 | -81.69765 | 40 ft | 66 kts | 71° |
| 2026-05-07 02:08 | 30.49935 | -81.68977 | 40 ft | 139 kts | 71° |
| 2026-05-07 02:09 | 30.50325 | -81.67722 | 263 ft | 179 kts | 72° |
| 2026-05-07 02:09 | 30.50707 | -81.66362 | 982 ft | 187 kts | 78° |
| 2026-05-07 02:09 | 30.51044 | -81.64833 | 1441 ft | 208 kts | 75° |
| 2026-05-07 02:09 | 30.51686 | -81.63274 | 2112 ft | 217 kts | 55° |
| 2026-05-07 02:10 | 30.52843 | -81.62095 | 2669 ft | 232 kts | 30° |
| 2026-05-07 02:10 | 30.54375 | -81.61388 | 3238 ft | 246 kts | 14° |
| 2026-05-07 02:10 | 30.56088 | -81.60886 | 3881 ft | 262 kts | 12° |
| 2026-05-07 02:10 | 30.57901 | -81.60359 | 4592 ft | 277 kts | 13° |
| 2026-05-07 02:11 | 30.59790 | -81.59769 | 5394 ft | 287 kts | 14° |
| 2026-05-07 02:11 | 30.61721 | -81.59138 | 6311 ft | 292 kts | 14° |
| 2026-05-07 02:11 | 30.63690 | -81.58487 | 7255 ft | 295 kts | 13° |
| 2026-05-07 02:11 | 30.65665 | -81.57835 | 8155 ft | 299 kts | 12° |
| 2026-05-07 02:12 | 30.67672 | -81.57175 | 9025 ft | 302 kts | 12° |
| 2026-05-07 02:12 | 30.69693 | -81.56510 | 9906 ft | 305 kts | 12° |
| 2026-05-07 02:12 | 30.71752 | -81.55835 | 10643 ft | 313 kts | 11° |
| 2026-05-07 02:12 | 30.73892 | -81.55137 | 11189 ft | 327 kts | 11° |
| 2026-05-07 02:13 | 30.76143 | -81.54403 | 11705 ft | 342 kts | 12° |
| 2026-05-07 02:13 | 30.78482 | -81.53638 | 12218 ft | 356 kts | 12° |
| 2026-05-07 02:13 | 30.80924 | -81.52839 | 12658 ft | 371 kts | 12° |
| 2026-05-07 02:13 | 30.83457 | -81.52007 | 13146 ft | 383 kts | 12° |
| 2026-05-07 02:14 | 30.86034 | -81.51103 | 13761 ft | 391 kts | 14° |
| 2026-05-07 02:14 | 30.88599 | -81.50010 | 14437 ft | 397 kts | 17° |
| 2026-05-07 02:14 | 30.91151 | -81.48780 | 15131 ft | 401 kts | 18° |
| 2026-05-07 02:14 | 30.93752 | -81.47601 | 15764 ft | 403 kts | 14° |
| 2026-05-07 02:15 | 30.96465 | -81.46701 | 16408 ft | 405 kts | 8° |
| 2026-05-07 02:15 | 30.99218 | -81.46005 | 17048 ft | 407 kts | 6° |
| 2026-05-07 02:15 | 31.02015 | -81.45400 | 17648 ft | 411 kts | 5° |
| 2026-05-07 02:15 | 31.04844 | -81.44819 | 18314 ft | 413 kts | 4° |
| 2026-05-07 02:16 | 31.07675 | -81.44232 | 18965 ft | 416 kts | 4° |
| 2026-05-07 02:16 | 31.10527 | -81.43625 | 19603 ft | 418 kts | 4° |
| 2026-05-07 02:16 | 31.13404 | -81.42998 | 20174 ft | 423 kts | 4° |
| 2026-05-07 02:16 | 31.16280 | -81.42361 | 20770 ft | 425 kts | 4° |
| 2026-05-07 02:17 | 31.19199 | -81.41707 | 21338 ft | 429 kts | 3° |
| 2026-05-07 02:17 | 31.22131 | -81.41047 | 21867 ft | 433 kts | 3° |
| 2026-05-07 02:17 | 31.25073 | -81.40383 | 22458 ft | 434 kts | 3° |
| 2026-05-07 02:17 | 31.28046 | -81.39710 | 23027 ft | 436 kts | 3° |
| 2026-05-07 02:18 | 31.31030 | -81.39033 | 23520 ft | 440 kts | 3° |
| 2026-05-07 02:18 | 31.34038 | -81.38352 | 24094 ft | 442 kts | 3° |
| 2026-05-07 02:18 | 31.37083 | -81.37661 | 24656 ft | 443 kts | 3° |
| 2026-05-07 02:18 | 31.40126 | -81.36970 | 25129 ft | 447 kts | 3° |
| 2026-05-07 02:19 | 31.43190 | -81.36276 | 25613 ft | 450 kts | 3° |
| 2026-05-07 02:19 | 31.46266 | -81.35577 | 26125 ft | 451 kts | 3° |
| 2026-05-07 02:19 | 31.49377 | -81.34872 | 26469 ft | 457 kts | 3° |
| 2026-05-07 02:19 | 31.52514 | -81.34162 | 26832 ft | 461 kts | 4° |
| 2026-05-07 02:20 | 31.55670 | -81.33444 | 27335 ft | 462 kts | 4° |
| 2026-05-07 02:20 | 31.58847 | -81.32717 | 27843 ft | 462 kts | 3° |
| 2026-05-07 02:20 | 31.62022 | -81.31993 | 28185 ft | 466 kts | 3° |
| 2026-05-07 02:20 | 31.65200 | -81.31267 | 28674 ft | 465 kts | 3° |
| 2026-05-07 02:21 | 31.68363 | -81.30541 | 29322 ft | 461 kts | 3° |
| 2026-05-07 02:21 | 31.71490 | -81.29820 | 30015 ft | 456 kts | 3° |
| 2026-05-07 02:21 | 31.74597 | -81.29104 | 30527 ft | 454 kts | 3° |
| 2026-05-07 02:21 | 31.77691 | -81.28394 | 31017 ft | 453 kts | 3° |
| 2026-05-07 02:22 | 31.80813 | -81.27681 | 31380 ft | 454 kts | 3° |
| 2026-05-07 02:22 | 31.83913 | -81.26974 | 31769 ft | 455 kts | 3° |
| 2026-05-07 02:22 | 31.87019 | -81.26263 | 32162 ft | 455 kts | 3° |
| 2026-05-07 02:22 | 31.90132 | -81.25552 | 32529 ft | 456 kts | 2° |
| 2026-05-07 02:23 | 31.93250 | -81.24838 | 32924 ft | 456 kts | 3° |
| 2026-05-07 02:23 | 31.96366 | -81.24123 | 32997 ft | 456 kts | 3° |
| 2026-05-07 02:23 | 32.02569 | -81.22232 | 32990 ft | 465 kts | 13° |
| 2026-05-07 02:24 | 32.08321 | -81.18453 | 32998 ft | 482 kts | 27° |
| 2026-05-07 02:24 | 32.13712 | -81.13811 | 33002 ft | 480 kts | 30° |
| 2026-05-07 02:25 | 32.19017 | -81.09017 | 33010 ft | 484 kts | 30° |
| 2026-05-07 02:25 | 32.24295 | -81.04262 | 33008 ft | 481 kts | 29° |
| 2026-05-07 02:26 | 32.29630 | -80.99508 | 32998 ft | 481 kts | 29° |
| 2026-05-07 02:26 | 32.34993 | -80.94763 | 33004 ft | 483 kts | 29° |
| 2026-05-07 02:27 | 32.40369 | -80.90013 | 32997 ft | 480 kts | 29° |
| 2026-05-07 02:27 | 32.45732 | -80.85273 | 32997 ft | 482 kts | 29° |
| 2026-05-07 02:28 | 32.51104 | -80.80520 | 32998 ft | 480 kts | 29° |
| 2026-05-07 02:28 | 32.56478 | -80.75764 | 33000 ft | 485 kts | 28° |
| 2026-05-07 02:29 | 32.61869 | -80.70981 | 32993 ft | 482 kts | 29° |
| 2026-05-07 02:29 | 32.67236 | -80.66209 | 32992 ft | 484 kts | 29° |
| 2026-05-07 02:30 | 32.72370 | -80.61003 | 32989 ft | 490 kts | 36° |
| 2026-05-07 02:30 | 32.77080 | -80.55029 | 32992 ft | 497 kts | 41° |
| 2026-05-07 02:31 | 32.81602 | -80.48839 | 32990 ft | 496 kts | 42° |
| 2026-05-07 02:31 | 32.86095 | -80.42626 | 32987 ft | 496 kts | 41° |
| 2026-05-07 02:32 | 32.90580 | -80.36454 | 32995 ft | 497 kts | 41° |
| 2026-05-07 02:32 | 32.95107 | -80.30263 | 32994 ft | 493 kts | 41° |
| 2026-05-07 02:33 | 32.99619 | -80.24105 | 32993 ft | 496 kts | 41° |
| 2026-05-07 02:33 | 33.04139 | -80.17935 | 32991 ft | 496 kts | 41° |
| 2026-05-07 02:34 | 33.08692 | -80.11711 | 32995 ft | 497 kts | 41° |
| 2026-05-07 02:34 | 33.13180 | -80.05557 | 32994 ft | 495 kts | 41° |
| 2026-05-07 02:35 | 33.17673 | -79.99396 | 32992 ft | 497 kts | 41° |
| 2026-05-07 02:35 | 33.22140 | -79.93260 | 32992 ft | 497 kts | 41° |
| 2026-05-07 02:36 | 33.26653 | -79.87045 | 32982 ft | 493 kts | 41° |
| 2026-05-07 02:36 | 33.31150 | -79.80847 | 32976 ft | 496 kts | 41° |
| 2026-05-07 02:37 | 33.35680 | -79.74599 | 32970 ft | 499 kts | 41° |
| 2026-05-07 02:37 | 33.40226 | -79.68307 | 32971 ft | 499 kts | 41° |
| 2026-05-07 02:38 | 33.44748 | -79.62036 | 32972 ft | 502 kts | 41° |
| 2026-05-07 02:38 | 33.49290 | -79.55732 | 32971 ft | 497 kts | 41° |
| 2026-05-07 02:39 | 33.53804 | -79.49446 | 32970 ft | 502 kts | 41° |
| 2026-05-07 02:39 | 33.58359 | -79.43096 | 32966 ft | 499 kts | 41° |
| 2026-05-07 02:40 | 33.62869 | -79.36798 | 32956 ft | 501 kts | 41° |
| 2026-05-07 02:40 | 33.67379 | -79.30492 | 32971 ft | 501 kts | 42° |
| 2026-05-07 02:41 | 33.71905 | -79.24144 | 32978 ft | 501 kts | 42° |
| 2026-05-07 02:41 | 33.76447 | -79.17782 | 32984 ft | 505 kts | 42° |
| 2026-05-07 02:42 | 33.80983 | -79.11409 | 32985 ft | 505 kts | 42° |
| 2026-05-07 02:42 | 33.85531 | -79.05023 | 32984 ft | 501 kts | 42° |
| 2026-05-07 02:43 | 33.90054 | -78.98646 | 32988 ft | 502 kts | 42° |
| 2026-05-07 02:43 | 33.94572 | -78.92269 | 32985 ft | 501 kts | 42° |
| 2026-05-07 02:44 | 33.99094 | -78.85883 | 32974 ft | 501 kts | 42° |
| 2026-05-07 02:44 | 34.03633 | -78.79456 | 32976 ft | 506 kts | 42° |
| 2026-05-07 02:45 | 34.08159 | -78.73034 | 32978 ft | 500 kts | 43° |
| 2026-05-07 02:45 | 34.12595 | -78.66734 | 32980 ft | 500 kts | 42° |
| 2026-05-07 02:46 | 34.16954 | -78.60524 | 32979 ft | 499 kts | 43° |
| 2026-05-07 02:46 | 34.21301 | -78.54311 | 32983 ft | 501 kts | 43° |
| 2026-05-07 02:47 | 34.25858 | -78.48115 | 32984 ft | 494 kts | 38° |
| 2026-05-07 02:47 | 34.30798 | -78.42516 | 32977 ft | 495 kts | 34° |
| 2026-05-07 02:48 | 34.35947 | -78.37059 | 32978 ft | 490 kts | 33° |
| 2026-05-07 02:48 | 34.41077 | -78.31688 | 32971 ft | 495 kts | 33° |
| 2026-05-07 02:49 | 34.46238 | -78.26226 | 32971 ft | 493 kts | 34° |
| 2026-05-07 02:49 | 34.51383 | -78.20731 | 32971 ft | 492 kts | 34° |
| 2026-05-07 02:50 | 34.56535 | -78.15208 | 32979 ft | 496 kts | 34° |
| 2026-05-07 02:50 | 34.61701 | -78.09653 | 32981 ft | 494 kts | 34° |
| 2026-05-07 02:51 | 34.66824 | -78.04118 | 32980 ft | 496 kts | 34° |
| 2026-05-07 02:51 | 34.71986 | -77.98532 | 32987 ft | 496 kts | 34° |
| 2026-05-07 02:52 | 34.77129 | -77.92973 | 32983 ft | 492 kts | 33° |
| 2026-05-07 02:52 | 34.82225 | -77.87448 | 32981 ft | 494 kts | 34° |
| 2026-05-07 02:53 | 34.87358 | -77.81876 | 32979 ft | 493 kts | 33° |
| 2026-05-07 02:53 | 34.92550 | -77.76402 | 32977 ft | 496 kts | 32° |
| 2026-05-07 02:54 | 34.97765 | -77.71031 | 32977 ft | 491 kts | 32° |
| 2026-05-07 02:54 | 35.02985 | -77.65660 | 32978 ft | 490 kts | 32° |
| 2026-05-07 02:55 | 35.08220 | -77.60252 | 32972 ft | 491 kts | 32° |
| 2026-05-07 02:55 | 35.13443 | -77.54958 | 32967 ft | 487 kts | 30° |
| 2026-05-07 02:56 | 35.18786 | -77.50457 | 32961 ft | 484 kts | 24° |
| 2026-05-07 02:56 | 35.23961 | -77.46583 | 32959 ft | 481 kts | 22° |
| 2026-05-07 02:57 | 35.29779 | -77.42340 | 32960 ft | 484 kts | 21° |
| 2026-05-07 02:57 | 35.35554 | -77.38103 | 32956 ft | 485 kts | 22° |
| 2026-05-07 02:58 | 35.41290 | -77.33853 | 32954 ft | 489 kts | 24° |
| 2026-05-07 02:58 | 35.47099 | -77.29507 | 32962 ft | 484 kts | 23° |
| 2026-05-07 02:59 | 35.52894 | -77.25152 | 32955 ft | 492 kts | 23° |
| 2026-05-07 02:59 | 35.58705 | -77.20764 | 32959 ft | 486 kts | 24° |
| 2026-05-07 03:00 | 35.64482 | -77.16390 | 32957 ft | 487 kts | 23° |
| 2026-05-07 03:00 | 35.70271 | -77.12008 | 32960 ft | 492 kts | 23° |
| 2026-05-07 03:01 | 35.76104 | -77.07604 | 32955 ft | 493 kts | 23° |
| 2026-05-07 03:01 | 35.81916 | -77.03203 | 32953 ft | 489 kts | 22° |
| 2026-05-07 03:02 | 35.87716 | -76.98795 | 32948 ft | 490 kts | 22° |
| 2026-05-07 03:02 | 35.93540 | -76.94412 | 32951 ft | 490 kts | 20° |
| 2026-05-07 03:03 | 35.99488 | -76.90346 | 32955 ft | 489 kts | 19° |
| 2026-05-07 03:03 | 36.05500 | -76.86436 | 32960 ft | 490 kts | 18° |
| 2026-05-07 03:04 | 36.11551 | -76.82498 | 32956 ft | 495 kts | 18° |
| 2026-05-07 03:04 | 36.17360 | -76.78653 | 32960 ft | 484 kts | 17° |
| 2026-05-07 03:05 | 36.29138 | -76.70798 | 32953 ft | 489 kts | 17° |
| 2026-05-07 03:06 | 36.35144 | -76.66781 | 32946 ft | 492 kts | 17° |
| 2026-05-07 03:06 | 36.41133 | -76.62755 | 32932 ft | 492 kts | 17° |
| 2026-05-07 03:07 | 36.47196 | -76.58662 | 32922 ft | 491 kts | 18° |
| 2026-05-07 03:07 | 36.53165 | -76.54598 | 32927 ft | 488 kts | 17° |
| 2026-05-07 03:08 | 36.59157 | -76.50547 | 32926 ft | 492 kts | 17° |
| 2026-05-07 03:08 | 36.65180 | -76.46466 | 32926 ft | 494 kts | 17° |
| 2026-05-07 03:09 | 36.71202 | -76.42381 | 32924 ft | 492 kts | 16° |
| 2026-05-07 03:09 | 36.77250 | -76.38267 | 32920 ft | 498 kts | 17° |
| 2026-05-07 03:10 | 36.82841 | -76.34451 | 32913 ft | 494 kts | 17° |
| 2026-05-07 03:10 | 36.89164 | -76.30134 | 32915 ft | 502 kts | 17° |
| 2026-05-07 03:11 | 36.95259 | -76.25961 | 32915 ft | 494 kts | 17° |
| 2026-05-07 03:11 | 37.01267 | -76.21834 | 32910 ft | 497 kts | 17° |
| 2026-05-07 03:12 | 37.07361 | -76.17660 | 32907 ft | 500 kts | 17° |
| 2026-05-07 03:12 | 37.13389 | -76.13507 | 32906 ft | 498 kts | 17° |
| 2026-05-07 03:13 | 37.19300 | -76.09443 | 32902 ft | 502 kts | 18° |
| 2026-05-07 03:13 | 37.25245 | -76.05337 | 32895 ft | 496 kts | 17° |
| 2026-05-07 03:14 | 37.31293 | -76.01153 | 32891 ft | 500 kts | 18° |
| 2026-05-07 03:15 | 37.40447 | -75.94823 | 32891 ft | 502 kts | 18° |
| 2026-05-07 03:15 | 37.46528 | -75.90602 | 32897 ft | 500 kts | 17° |
| 2026-05-07 03:16 | 37.52639 | -75.86354 | 32898 ft | 504 kts | 18° |
| 2026-05-07 03:16 | 37.58769 | -75.81956 | 32900 ft | 505 kts | 20° |
| 2026-05-07 03:17 | 37.64823 | -75.77397 | 32899 ft | 510 kts | 20° |
| 2026-05-07 03:17 | 37.70862 | -75.72799 | 32900 ft | 508 kts | 20° |
| 2026-05-07 03:18 | 37.76909 | -75.68202 | 32899 ft | 506 kts | 20° |
| 2026-05-07 03:18 | 37.82976 | -75.63607 | 32900 ft | 508 kts | 20° |
| 2026-05-07 03:19 | 37.89038 | -75.58806 | 32898 ft | 512 kts | 24° |
| 2026-05-07 03:19 | 37.94912 | -75.53661 | 32898 ft | 516 kts | 25° |
| 2026-05-07 03:20 | 38.00829 | -75.48374 | 32898 ft | 522 kts | 25° |
| 2026-05-07 03:20 | 38.06857 | -75.43458 | 32897 ft | 504 kts | 18° |
| 2026-05-07 03:21 | 38.13060 | -75.39493 | 32897 ft | 497 kts | 13° |
| 2026-05-07 03:21 | 38.19234 | -75.35920 | 32895 ft | 492 kts | 11° |
| 2026-05-07 03:22 | 38.24781 | -75.32766 | 32899 ft | 499 kts | 12° |
| 2026-05-07 03:22 | 38.31095 | -75.29137 | 32898 ft | 497 kts | 13° |
| 2026-05-07 03:23 | 38.37450 | -75.25437 | 32898 ft | 498 kts | 13° |
| 2026-05-07 03:23 | 38.43754 | -75.21719 | 32897 ft | 501 kts | 13° |
| 2026-05-07 03:24 | 38.50106 | -75.17974 | 32891 ft | 502 kts | 13° |
| 2026-05-07 03:24 | 38.56344 | -75.14256 | 32889 ft | 492 kts | 12° |
| 2026-05-07 03:25 | 38.62576 | -75.10460 | 32888 ft | 502 kts | 14° |
| 2026-05-07 03:25 | 38.68869 | -75.06442 | 32806 ft | 506 kts | 15° |
| 2026-05-07 03:25 | 38.71990 | -75.04413 | 32380 ft | 502 kts | 15° |
| 2026-05-07 03:26 | 38.75074 | -75.02394 | 31791 ft | 498 kts | 16° |
| 2026-05-07 03:26 | 38.78156 | -75.00378 | 31047 ft | 498 kts | 16° |
| 2026-05-07 03:26 | 38.81236 | -74.98377 | 30217 ft | 500 kts | 17° |
| 2026-05-07 03:26 | 38.84333 | -74.96376 | 29351 ft | 503 kts | 17° |
| 2026-05-07 03:27 | 38.87484 | -74.94346 | 28420 ft | 507 kts | 17° |
| 2026-05-07 03:27 | 38.90618 | -74.92322 | 27699 ft | 505 kts | 17° |
| 2026-05-07 03:27 | 38.93736 | -74.90303 | 27009 ft | 502 kts | 17° |
| 2026-05-07 03:27 | 38.96837 | -74.88294 | 26300 ft | 500 kts | 17° |
| 2026-05-07 03:28 | 38.99938 | -74.86286 | 25575 ft | 498 kts | 17° |
| 2026-05-07 03:28 | 39.03018 | -74.84327 | 24838 ft | 493 kts | 15° |
| 2026-05-07 03:28 | 39.06152 | -74.82678 | 24117 ft | 481 kts | 7° |
| 2026-05-07 03:28 | 39.09354 | -74.81758 | 23415 ft | 458 kts | 354° |
| 2026-05-07 03:29 | 39.12442 | -74.81719 | 22713 ft | 437 kts | 343° |
| 2026-05-07 03:29 | 39.15386 | -74.82324 | 22015 ft | 424 kts | 336° |
| 2026-05-07 03:29 | 39.18205 | -74.83214 | 21320 ft | 418 kts | 334° |
| 2026-05-07 03:29 | 39.20984 | -74.84209 | 20612 ft | 415 kts | 334° |
| 2026-05-07 03:30 | 39.23735 | -74.85244 | 19902 ft | 412 kts | 334° |
| 2026-05-07 03:30 | 39.26458 | -74.86288 | 19200 ft | 410 kts | 335° |
| 2026-05-07 03:30 | 39.29168 | -74.87331 | 18495 ft | 408 kts | 335° |
| 2026-05-07 03:30 | 39.31803 | -74.88345 | 17773 ft | 406 kts | 336° |
| 2026-05-07 03:31 | 39.32140 | -74.88475 | 17689 ft | 406 kts | 336° |
| 2026-05-07 03:31 | 39.34752 | -74.89477 | 17038 ft | 403 kts | 336° |
| 2026-05-07 03:31 | 39.36980 | -74.90329 | 16452 ft | 402 kts | 336° |
| 2026-05-07 03:31 | 39.39752 | -74.91385 | 15722 ft | 399 kts | 336° |
| 2026-05-07 03:32 | 39.42401 | -74.92389 | 15036 ft | 394 kts | 336° |
| 2026-05-07 03:32 | 39.45000 | -74.93370 | 14367 ft | 383 kts | 337° |
| 2026-05-07 03:32 | 39.47507 | -74.94313 | 13683 ft | 374 kts | 336° |
| 2026-05-07 03:32 | 39.49966 | -74.95239 | 13053 ft | 365 kts | 336° |
| 2026-05-07 03:33 | 39.52356 | -74.96156 | 12536 ft | 353 kts | 334° |
| 2026-05-07 03:33 | 39.54553 | -74.97351 | 11962 ft | 336 kts | 323° |
| 2026-05-07 03:33 | 39.56482 | -74.98921 | 11389 ft | 324 kts | 317° |
| 2026-05-07 03:33 | 39.58150 | -75.00520 | 10973 ft | 312 kts | 315° |
| 2026-05-07 03:34 | 39.59834 | -75.02193 | 10724 ft | 296 kts | 315° |
| 2026-05-07 03:34 | 39.61439 | -75.03761 | 10595 ft | 284 kts | 314° |
| 2026-05-07 03:34 | 39.63014 | -75.05272 | 10464 ft | 283 kts | 315° |
| 2026-05-07 03:34 | 39.64611 | -75.06790 | 10338 ft | 283 kts | 315° |
| 2026-05-07 03:35 | 39.66223 | -75.08211 | 10188 ft | 280 kts | 321° |
| 2026-05-07 03:35 | 39.68075 | -75.09136 | 9888 ft | 303 kts | 343° |
| 2026-05-07 03:35 | 39.69906 | -75.09179 | 9539 ft | 312 kts | 359° |
| 2026-05-07 03:35 | 39.72273 | -75.08531 | 9061 ft | 317 kts | 17° |
| 2026-05-07 03:36 | 39.74096 | -75.06938 | 8757 ft | 319 kts | 41° |
| 2026-05-07 03:36 | 39.75594 | -75.04833 | 8355 ft | 316 kts | 46° |
| 2026-05-07 03:36 | 39.77017 | -75.02700 | 7980 ft | 313 kts | 46° |
| 2026-05-07 03:36 | 39.78440 | -75.00591 | 7598 ft | 314 kts | 46° |
| 2026-05-07 03:37 | 39.79897 | -74.98473 | 7185 ft | 314 kts | 45° |
| 2026-05-07 03:37 | 39.81360 | -74.96374 | 6823 ft | 313 kts | 45° |
| 2026-05-07 03:37 | 39.82813 | -74.94241 | 6442 ft | 313 kts | 49° |
| 2026-05-07 03:37 | 39.83969 | -74.91871 | 6066 ft | 314 kts | 66° |
| 2026-05-07 03:38 | 39.84650 | -74.89178 | 5689 ft | 313 kts | 76° |
| 2026-05-07 03:38 | 39.85138 | -74.86433 | 5409 ft | 308 kts | 77° |
| 2026-05-07 03:38 | 39.85628 | -74.83789 | 5399 ft | 293 kts | 75° |
| 2026-05-07 03:38 | 39.86123 | -74.81297 | 5400 ft | 281 kts | 75° |
| 2026-05-07 03:39 | 39.86611 | -74.78887 | 5403 ft | 271 kts | 75° |
| 2026-05-07 03:39 | 39.87088 | -74.76526 | 5290 ft | 269 kts | 75° |
| 2026-05-07 03:39 | 39.87561 | -74.74176 | 5044 ft | 267 kts | 75° |
| 2026-05-07 03:39 | 39.88021 | -74.71866 | 4798 ft | 263 kts | 74° |
| 2026-05-07 03:40 | 39.88575 | -74.69606 | 4547 ft | 263 kts | 60° |
| 2026-05-07 03:40 | 39.89713 | -74.67837 | 4301 ft | 251 kts | 30° |
| 2026-05-07 03:40 | 39.91267 | -74.67059 | 4057 ft | 234 kts | 0° |
| 2026-05-07 03:40 | 39.92846 | -74.67105 | 3817 ft | 228 kts | 347° |
| 2026-05-07 03:41 | 39.94329 | -74.67670 | 3562 ft | 217 kts | 324° |
| 2026-05-07 03:41 | 39.95313 | -74.69078 | 3314 ft | 212 kts | 294° |
| 2026-05-07 03:41 | 39.95520 | -74.70939 | 3078 ft | 211 kts | 268° |
| 2026-05-07 03:41 | 39.95399 | -74.72823 | 2991 ft | 210 kts | 269° |
| 2026-05-07 03:42 | 39.95366 | -74.74731 | 2998 ft | 213 kts | 272° |
| 2026-05-07 03:42 | 39.95424 | -74.76627 | 2995 ft | 210 kts | 276° |
| 2026-05-07 03:42 | 39.95548 | -74.78519 | 2996 ft | 211 kts | 276° |
| 2026-05-07 03:42 | 39.95565 | -74.80395 | 2998 ft | 203 kts | 268° |
| 2026-05-07 03:43 | 39.95366 | -74.82222 | 3000 ft | 204 kts | 262° |
| 2026-05-07 03:43 | 39.95058 | -74.84026 | 3000 ft | 203 kts | 260° |
| 2026-05-07 03:43 | 39.94723 | -74.85816 | 3000 ft | 207 kts | 259° |
| 2026-05-07 03:43 | 39.94376 | -74.87615 | 3002 ft | 202 kts | 259° |
| 2026-05-07 03:44 | 39.94029 | -74.89400 | 3001 ft | 204 kts | 259° |
| 2026-05-07 03:44 | 39.93681 | -74.91178 | 3002 ft | 204 kts | 259° |
| 2026-05-07 03:44 | 39.93327 | -74.92986 | 3003 ft | 206 kts | 259° |
| 2026-05-07 03:44 | 39.92975 | -74.94773 | 3003 ft | 205 kts | 259° |
| 2026-05-07 03:45 | 39.92621 | -74.96571 | 3001 ft | 204 kts | 259° |
| 2026-05-07 03:45 | 39.92269 | -74.98365 | 3001 ft | 204 kts | 259° |
| 2026-05-07 03:45 | 39.91917 | -75.00146 | 3006 ft | 202 kts | 259° |
| 2026-05-07 03:45 | 39.91563 | -75.01928 | 3003 ft | 204 kts | 259° |
| 2026-05-07 03:46 | 39.91213 | -75.03692 | 2885 ft | 194 kts | 259° |
| 2026-05-07 03:46 | 39.90892 | -75.05304 | 2649 ft | 176 kts | 260° |
| 2026-05-07 03:46 | 39.90604 | -75.06768 | 2441 ft | 159 kts | 261° |
| 2026-05-07 03:46 | 39.90338 | -75.08100 | 2214 ft | 145 kts | 263° |
| 2026-05-07 03:47 | 39.90092 | -75.09363 | 2023 ft | 144 kts | 263° |
| 2026-05-07 03:47 | 39.89844 | -75.10629 | 1835 ft | 145 kts | 263° |
| 2026-05-07 03:47 | 39.89589 | -75.11895 | 1639 ft | 146 kts | 263° |
| 2026-05-07 03:47 | 39.89339 | -75.13162 | 1441 ft | 144 kts | 262° |
| 2026-05-07 03:48 | 39.89086 | -75.14437 | 1245 ft | 146 kts | 261° |
| 2026-05-07 03:48 | 39.88833 | -75.15708 | 1058 ft | 145 kts | 261° |
| 2026-05-07 03:48 | 39.88579 | -75.16985 | 857 ft | 145 kts | 259° |
| 2026-05-07 03:48 | 39.88331 | -75.18250 | 665 ft | 144 kts | 259° |
| 2026-05-07 03:49 | 39.88077 | -75.19508 | 484 ft | 145 kts | 258° |
| 2026-05-07 03:49 | 39.87822 | -75.20780 | 283 ft | 146 kts | 257° |
| 2026-05-07 03:49 | 39.87561 | -75.22063 | 103 ft | 147 kts | 257° |
| 2026-05-07 03:49 | 39.87314 | -75.23344 | 5 ft | 136 kts | 257° |
| 2026-05-07 03:50 | 39.87138 | -75.24195 | 5 ft | 59 kts | 258° |
| 2026-05-07 03:50 | 39.87071 | -75.24532 | 6 ft | 31 kts | 256° |
| 2026-05-07 03:50 | 39.87047 | -75.24781 | 8 ft | 22 kts | 298° |
| 2026-05-07 03:50 | 39.87085 | -75.24825 | 8 ft | 0 kts | 336° |
| 2026-05-07 03:51 | 39.87113 | -75.24821 | 8 ft | 7 kts | 30° |
| 2026-05-07 03:51 | 39.87141 | -75.24774 | 7 ft | 7 kts | 74° |
| 2026-05-07 03:51 | 39.87142 | -75.24770 | 7 ft | 0 kts | 75° |
| 2026-05-07 03:52 | 39.87153 | -75.24707 | 7 ft | 19 kts | 76° |
| 2026-05-07 03:52 | 39.87190 | -75.24534 | 6 ft | 20 kts | 75° |
| 2026-05-07 03:52 | 39.87225 | -75.24360 | 5 ft | 20 kts | 76° |
| 2026-05-07 03:53 | 39.87259 | -75.24185 | 5 ft | 20 kts | 77° |
| 2026-05-07 03:53 | 39.87292 | -75.24012 | 5 ft | 18 kts | 75° |
| 2026-05-07 03:53 | 39.87337 | -75.23890 | 4 ft | 14 kts | 25° |
| 2026-05-07 03:53 | 39.87404 | -75.23822 | 5 ft | 13 kts | 69° |
| 2026-05-07 03:54 | 39.87445 | -75.23713 | 5 ft | 14 kts | 52° |
| 2026-05-07 03:54 | 39.87511 | -75.23629 | 5 ft | 12 kts | 42° |
| 2026-05-07 03:54 | 39.87572 | -75.23572 | 5 ft | 11 kts | 22° |
| 2026-05-07 03:54 | 39.87642 | -75.23561 | 5 ft | 10 kts | 327° |
| 2026-05-07 03:55 | 39.87651 | -75.23568 | 5 ft | 1 kts | 325° |
| 2026-05-07 03:55 | 39.87681 | -75.23592 | 5 ft | 6 kts | 332° |
| 2026-05-07 03:55 | 39.87697 | -75.23603 | 5 ft | 0 kts | 332° |
| 2026-05-07 03:55 | 39.87709 | -75.23611 | 5 ft | 2 kts | 334° |
| 2026-05-07 03:56 | 39.87712 | -75.23613 | 5 ft | 0 kts | 334° |